Map

Track Data

SID SEASON NUMBER BASIN SUBBASIN NAME ISO_TIME NATURE LAT LON WMO_WIND WMO_PRES WMO_AGENCY TRACK_TYPE DIST2LAND LANDFALL IFLAG USA_AGENCY USA_ATCF_ID USA_LAT USA_LON USA_RECORD USA_STATUS USA_WIND USA_PRES USA_SSHS USA_R34_NE USA_R34_SE USA_R34_SW USA_R34_NW USA_R50_NE USA_R50_SE USA_R50_SW USA_R50_NW USA_R64_NE USA_R64_SE USA_R64_SW USA_R64_NW USA_POCI USA_ROCI USA_RMW USA_EYE TOKYO_LAT TOKYO_LON TOKYO_GRADE TOKYO_WIND TOKYO_PRES TOKYO_R50_DIR TOKYO_R50_LONG TOKYO_R50_SHORT TOKYO_R30_DIR TOKYO_R30_LONG TOKYO_R30_SHORT TOKYO_LAND CMA_LAT CMA_LON CMA_CAT CMA_WIND CMA_PRES HKO_LAT HKO_LON HKO_CAT HKO_WIND HKO_PRES NEWDELHI_LAT NEWDELHI_LON NEWDELHI_GRADE NEWDELHI_WIND NEWDELHI_PRES NEWDELHI_CI NEWDELHI_DP NEWDELHI_POCI REUNION_LAT REUNION_LON REUNION_TYPE REUNION_WIND REUNION_PRES REUNION_TNUM REUNION_CI REUNION_RMW REUNION_R34_NE REUNION_R34_SE REUNION_R34_SW REUNION_R34_NW REUNION_R50_NE REUNION_R50_SE REUNION_R50_SW REUNION_R50_NW REUNION_R64_NE REUNION_R64_SE REUNION_R64_SW REUNION_R64_NW BOM_LAT BOM_LON BOM_TYPE BOM_WIND BOM_PRES BOM_TNUM BOM_CI BOM_RMW BOM_R34_NE BOM_R34_SE BOM_R34_SW BOM_R34_NW BOM_R50_NE BOM_R50_SE BOM_R50_SW BOM_R50_NW BOM_R64_NE BOM_R64_SE BOM_R64_SW BOM_R64_NW BOM_ROCI BOM_POCI BOM_EYE BOM_POS_METHOD BOM_PRES_METHOD NADI_LAT NADI_LON NADI_CAT NADI_WIND NADI_PRES WELLINGTON_LAT WELLINGTON_LON WELLINGTON_WIND WELLINGTON_PRES DS824_LAT DS824_LON DS824_STAGE DS824_WIND DS824_PRES TD9636_LAT TD9636_LON TD9636_STAGE TD9636_WIND TD9636_PRES TD9635_LAT TD9635_LON TD9635_WIND TD9635_PRES TD9635_ROCI NEUMANN_LAT NEUMANN_LON NEUMANN_CLASS NEUMANN_WIND NEUMANN_PRES MLC_LAT MLC_LON MLC_CLASS MLC_WIND MLC_PRES USA_GUST BOM_GUST BOM_GUST_PER REUNION_GUST REUNION_GUST_PER USA_SEAHGT USA_SEARAD_NE USA_SEARAD_SE USA_SEARAD_SW USA_SEARAD_NW STORM_SPEED STORM_DIR
1881223N16329 1881 27 NA NA NOT_NAMED 1881-08-11 00:00:00 TS 16.0000 -31.0000 80 hurdat_atl main 1455 1455 O_____________ hurdat_atl AL031881 16.0000 -31.0000 HU 80 1 10 270
1881223N16329 1881 27 NA NA NOT_NAMED 1881-08-11 03:00:00 TS 16.0002 -31.5000 main 1508 1508 P_____________ AL031881 16.0002 -31.5000 HU 80 1 10 270
1881223N16329 1881 27 NA NA NOT_NAMED 1881-08-11 06:00:00 TS 16.0000 -32.0000 80 hurdat_atl main 1561 1561 O_____________ hurdat_atl AL031881 16.0000 -32.0000 HU 80 1 10 270
1881223N16329 1881 27 NA NA NOT_NAMED 1881-08-11 09:00:00 TS 15.9999 -32.5000 main 1615 1615 P_____________ AL031881 15.9999 -32.5000 HU 80 1 10 270
1881223N16329 1881 27 NA NA NOT_NAMED 1881-08-11 12:00:00 TS 16.0000 -33.0000 80 hurdat_atl main 1668 1668 O_____________ hurdat_atl AL031881 16.0000 -33.0000 HU 80 1 9 270
1881223N16329 1881 27 NA NA NOT_NAMED 1881-08-11 15:00:00 TS 15.9922 -33.4776 main 1722 1722 P_____________ AL031881 15.9922 -33.4776 HU 80 1 10 270
1881223N16329 1881 27 NA NA NOT_NAMED 1881-08-11 18:00:00 TS 16.0000 -34.0000 80 hurdat_atl main 1775 1775 O_____________ hurdat_atl AL031881 16.0000 -34.0000 HU 80 1 11 273
1881223N16329 1881 27 NA NA NOT_NAMED 1881-08-11 21:00:00 TS 16.0426 -34.6424 main 1839 1839 P_____________ AL031881 16.0426 -34.6424 HU 80 1 13 275
1881223N16329 1881 27 NA NA NOT_NAMED 1881-08-12 00:00:00 TS 16.1000 -35.3000 80 hurdat_atl main 1914 1914 O_____________ hurdat_atl AL031881 16.1000 -35.3000 HU 80 1 12 276
1881223N16329 1881 27 NA NA NOT_NAMED 1881-08-12 03:00:00 TS 16.1573 -35.8800 main 1979 1979 P_____________ AL031881 16.1573 -35.8800 HU 80 1 11 275
1881223N16329 1881 27 NA NA NOT_NAMED 1881-08-12 06:00:00 TS 16.2000 -36.4000 80 hurdat_atl main 2032 2032 O_____________ hurdat_atl AL031881 16.2000 -36.4000 HU 80 1 9 272
1881223N16329 1881 27 NA NA NOT_NAMED 1881-08-12 09:00:00 TS 16.1846 -36.8428 main 2070 2029 P_____________ AL031881 16.1846 -36.8428 HU 80 1 9 270
1881223N16329 1881 27 NA NA NOT_NAMED 1881-08-12 12:00:00 TS 16.2000 -37.3000 80 hurdat_atl main 2029 1995 O_____________ hurdat_atl AL031881 16.2000 -37.3000 HU 80 1 10 279
1881223N16329 1881 27 NA NA NOT_NAMED 1881-08-12 15:00:00 TS 16.3350 -37.8773 main 1987 1954 P_____________ AL031881 16.3350 -37.8773 HU 80 1 12 285
1881223N16329 1881 27 NA NA NOT_NAMED 1881-08-12 18:00:00 TS 16.5000 -38.5000 80 hurdat_atl main 1954 1916 O_____________ hurdat_atl AL031881 16.5000 -38.5000 HU 80 1 12 282
1881223N16329 1881 27 NA NA NOT_NAMED 1881-08-12 21:00:00 TS 16.5848 -39.1003 main 1916 1879 P_____________ AL031881 16.5848 -39.1003 HU 80 1 12 280
1881223N16329 1881 27 NA NA NOT_NAMED 1881-08-13 00:00:00 TS 16.7000 -39.7000 80 hurdat_atl main 1879 1852 O_____________ hurdat_atl AL031881 16.7000 -39.7000 HU 80 1 12 286
1881223N16329 1881 27 NA NA NOT_NAMED 1881-08-13 03:00:00 TS 16.9276 -40.3298 main 1852 1834 P_____________ AL031881 16.9276 -40.3298 HU 80 1 13 294
1881223N16329 1881 27 NA NA NOT_NAMED 1881-08-13 06:00:00 TS 17.2000 -40.9000 80 hurdat_atl main 1836 1827 O_____________ hurdat_atl AL031881 17.2000 -40.9000 HU 80 1 11 299
1881223N16329 1881 27 NA NA NOT_NAMED 1881-08-13 09:00:00 TS 17.4496 -41.3078 main 1827 1823 P_____________ AL031881 17.4496 -41.3078 HU 80 1 9 303
1881223N16329 1881 27 NA NA NOT_NAMED 1881-08-13 12:00:00 TS 17.7000 -41.7000 80 hurdat_atl main 1829 1817 O_____________ hurdat_atl AL031881 17.7000 -41.7000 HU 80 1 10 299
1881223N16329 1881 27 NA NA NOT_NAMED 1881-08-13 15:00:00 TS 17.9501 -42.2425 main 1825 1801 P_____________ AL031881 17.9501 -42.2425 HU 80 1 12 296
1881223N16329 1881 27 NA NA NOT_NAMED 1881-08-13 18:00:00 TS 18.2000 -42.8000 80 hurdat_atl main 1803 1793 O_____________ hurdat_atl AL031881 18.2000 -42.8000 HU 80 1 11 297
1881223N16329 1881 27 NA NA NOT_NAMED 1881-08-13 21:00:00 TS 18.4347 -43.2579 main 1790 1787 P_____________ AL031881 18.4347 -43.2579 HU 80 1 10 300
1881223N16329 1881 27 NA NA NOT_NAMED 1881-08-14 00:00:00 TS 18.7000 -43.7000 80 hurdat_atl main 1794 1788 O_____________ hurdat_atl AL031881 18.7000 -43.7000 HU 80 1 11 304
1881223N16329 1881 27 NA NA NOT_NAMED 1881-08-14 03:00:00 TS 19.0425 -44.2074 main 1793 1793 P_____________ AL031881 19.0425 -44.2074 HU 80 1 12 307
1881223N16329 1881 27 NA NA NOT_NAMED 1881-08-14 06:00:00 TS 19.4000 -44.7000 80 hurdat_atl main 1805 1805 O_____________ hurdat_atl AL031881 19.4000 -44.7000 HU 80 1 11 307
1881223N16329 1881 27 NA NA NOT_NAMED 1881-08-14 09:00:00 TS 19.6847 -45.1080 main 1815 1810 P_____________ AL031881 19.6847 -45.1080 HU 80 1 10 309
1881223N16329 1881 27 NA NA NOT_NAMED 1881-08-14 12:00:00 TS 20.0000 -45.5000 80 hurdat_atl main 1825 1825 O_____________ hurdat_atl AL031881 20.0000 -45.5000 HU 80 1 11 313
1881223N16329 1881 27 NA NA NOT_NAMED 1881-08-14 15:00:00 TS 20.4351 -45.9648 main 1843 1843 P_____________ AL031881 20.4351 -45.9648 HU 80 1 12 317
1881223N16329 1881 27 NA NA NOT_NAMED 1881-08-14 18:00:00 TS 20.9000 -46.4000 80 hurdat_atl main 1878 1878 O_____________ hurdat_atl AL031881 20.9000 -46.4000 HU 80 1 11 321
1881223N16329 1881 27 NA NA NOT_NAMED 1881-08-14 21:00:00 TS 21.3072 -46.7080 main 1904 1904 P_____________ AL031881 21.3072 -46.7080 HU 75 1 10 325
1881223N16329 1881 27 NA NA NOT_NAMED 1881-08-15 00:00:00 TS 21.7000 -47.0000 70 hurdat_atl main 1931 1929 O_____________ hurdat_atl AL031881 21.7000 -47.0000 HU 70 1 10 322
1881223N16329 1881 27 NA NA NOT_NAMED 1881-08-15 03:00:00 TS 22.1076 -47.3925 main 1929 1908 P_____________ AL031881 22.1076 -47.3925 HU 70 1 11 317
1881223N16329 1881 27 NA NA NOT_NAMED 1881-08-15 06:00:00 TS 22.5000 -47.8000 70 hurdat_atl main 1908 1875 O_____________ hurdat_atl AL031881 22.5000 -47.8000 HU 70 1 10 316
1881223N16329 1881 27 NA NA NOT_NAMED 1881-08-15 09:00:00 TS 22.8425 -48.1728 main 1875 1852 P_____________ AL031881 22.8425 -48.1728 HU 70 1 10 317
1881223N16329 1881 27 NA NA NOT_NAMED 1881-08-15 12:00:00 TS 23.2000 -48.5000 70 hurdat_atl main 1854 1836 O_____________ hurdat_atl AL031881 23.2000 -48.5000 HU 70 1 10 326
1881223N16329 1881 27 NA NA NOT_NAMED 1881-08-15 15:00:00 TS 23.6574 -48.7651 main 1839 1829 P_____________ AL031881 23.6574 -48.7651 HU 70 1 10 333
1881223N16329 1881 27 NA NA NOT_NAMED 1881-08-15 18:00:00 TS 24.1000 -49.0000 70 hurdat_atl main 1832 1832 O_____________ hurdat_atl AL031881 24.1000 -49.0000 HU 70 1 8 355
1881223N16329 1881 27 NA NA NOT_NAMED 1881-08-15 21:00:00 TS 24.4819 -48.8338 main 1865 1865 P_____________ AL031881 24.3850 -49.2505 HU 70 1 8 13
1881223N16329 1881 27 NA NA NOT_NAMED 1881-08-16 00:00:00 TS 24.8800 -48.8000 70 hurdat_atl main 1879 1879 O____________O hurdat_atl AL031881 24.7000 -49.5000 HU 70 1 25.6000 -46.0000 HU 75 9 359
1881223N16329 1881 27 NA NA NOT_NAMED 1881-08-16 03:00:00 TS 25.4088 -48.8637 main 1889 1889 P____________P AL031881 25.2275 -49.7499 HU 70 1 25.8753 -46.4998 HU 75 11 350
1881223N16329 1881 27 NA NA NOT_NAMED 1881-08-16 06:00:00 TS 25.9333 -49.0000 70 hurdat_atl main 1901 1891 O____________O hurdat_atl AL031881 25.8000 -50.0000 HU 70 1 26.2000 -47.0000 HU 75 11 336
1881223N16329 1881 27 NA NA NOT_NAMED 1881-08-16 09:00:00 TS 26.3716 -49.3385 main 1896 1883 P____________P AL031881 26.2575 -50.2577 HU 70 1 26.5998 -47.5000 HU 72 11 325
1881223N16329 1881 27 NA NA NOT_NAMED 1881-08-16 12:00:00 TS 26.8000 -49.6667 70 hurdat_atl main 1879 1874 O____________O hurdat_atl AL031881 26.7000 -50.5000 HU 70 1 27.0000 -48.0000 HU 70 10 327
1881223N16329 1881 27 NA NA NOT_NAMED 1881-08-16 15:00:00 TS 27.2382 -49.9769 main 1874 1870 P____________P AL031881 27.2000 -50.7151 HU 70 1 27.3148 -48.5005 HU 70 10 328
1881223N16329 1881 27 NA NA NOT_NAMED 1881-08-16 18:00:00 TS 27.6667 -50.2667 70 hurdat_atl main 1875 1867 O____________O hurdat_atl AL031881 27.7000 -50.9000 HU 70 1 27.6000 -49.0000 HU 70 10 327
1881223N16329 1881 27 NA NA NOT_NAMED 1881-08-16 21:00:00 TS 28.0517 -50.5659 main 1873 1871 P____________P AL031881 28.1425 -51.0726 HU 65 1 27.8702 -49.5525 HU 70 9 329
1881223N16329 1881 27 NA NA NOT_NAMED 1881-08-17 00:00:00 TS 28.4667 -50.8000 60 hurdat_atl main 1881 1879 O____________O hurdat_atl AL031881 28.6000 -51.2000 TS 60 0 28.2000 -50.0000 HU 70 10 342
1881223N16329 1881 27 NA NA NOT_NAMED 1881-08-17 03:00:00 TS 28.9949 -50.9185 main 1904 1904 P____________P AL031881 29.1575 -51.2726 TS 60 0 28.6697 -50.2104 HU 70 11 352
1881223N16329 1881 27 NA NA NOT_NAMED 1881-08-17 06:00:00 TS 29.5333 -50.9667 60 hurdat_atl main 1913 1857 O____________O hurdat_atl AL031881 29.7000 -51.3000 TS 60 0 29.2000 -50.3000 HU 70 10 355
1881223N16329 1881 27 NA NA NOT_NAMED 1881-08-17 09:00:00 TS 29.9842 -51.0150 main 1857 1813 P____________P AL031881 30.1225 -51.3076 TS 60 0 29.7075 -50.4299 HU 70 9 356
1881223N16329 1881 27 NA NA NOT_NAMED 1881-08-17 12:00:00 TS 30.4000 -51.0333 60 hurdat_atl main 1813 1769 O____________O hurdat_atl AL031881 30.5000 -51.3000 TS 60 0 30.2000 -50.5000 HU 70 8 0
1881223N16329 1881 27 NA NA NOT_NAMED 1881-08-17 15:00:00 TS 30.8117 -51.0267 main 1769 1724 P____________P AL031881 30.8925 -51.3000 TS 60 0 30.6500 -50.4801 HU 67 8 3
1881223N16329 1881 27 NA NA NOT_NAMED 1881-08-17 18:00:00 TS 31.2333 -51.0000 60 hurdat_atl main 1724 1669 O____________O hurdat_atl AL031881 31.3000 -51.3000 TS 60 0 31.1000 -50.4000 HU 65 992 9 2
1881223N16329 1881 27 NA NA NOT_NAMED 1881-08-17 21:00:00 TS 31.6975 -50.9790 main 1669 1625 P____________P AL031881 31.7500 -51.3074 TS 60 0 31.5925 -50.3223 HU 65 9 3
1881223N16329 1881 27 NA NA NOT_NAMED 1881-08-18 00:00:00 TS 32.1667 -50.9333 60 hurdat_atl main 1614 1570 O____________O hurdat_atl AL031881 32.2000 -51.3000 TS 60 0 32.1000 -50.2000 HU 65 9 7
1881223N16329 1881 27 NA NA NOT_NAMED 1881-08-18 03:00:00 TS 32.5975 -50.8458 main 1571 1527 P____________P AL031881 32.5925 -51.2649 TS 60 0 32.6076 -50.0077 HU 65 9 11
1881223N16329 1881 27 NA NA NOT_NAMED 1881-08-18 06:00:00 TS 33.0333 -50.7333 60 hurdat_atl main 1528 1474 O____________O hurdat_atl AL031881 33.0000 -51.2000 TS 60 0 33.1000 -49.8000 HU 65 9 11
1881223N16329 1881 27 NA NA NOT_NAMED 1881-08-18 09:00:00 TS 33.4816 -50.6385 main 1474 1421 P____________P AL031881 33.4474 -51.1294 TS 60 0 33.5499 -49.6569 HU 62 10 16
1881223N16329 1881 27 NA NA NOT_NAMED 1881-08-18 12:00:00 TS 34.0000 -50.4000 60 hurdat_atl main 1421 1361 O____________O hurdat_atl AL031881 34.0000 -51.0000 TS 60 0 34.0000 -49.5000 TS 60 12 25
1881223N16329 1881 27 NA NA NOT_NAMED 1881-08-18 15:00:00 TS 34.5989 -50.0220 main 1361 1314 P____________P AL031881 34.7052 -50.7790 TS 60 0 34.4925 -49.2650 TS 55 14 32
1881223N16329 1881 27 NA NA NOT_NAMED 1881-08-18 18:00:00 TS 35.1667 -49.5000 60 hurdat_atl main 1305 1285 O____________O hurdat_atl AL031881 35.5000 -50.5000 TS 60 0 35.0000 -49.0000 TS 50 14 47
1881223N16329 1881 27 NA NA NOT_NAMED 1881-08-18 21:00:00 TS 35.5524 -48.7502 main 1277 1241 _____________P AL031881 TS -1 35.5524 -48.7502 TS 45 12 44
1881223N16329 1881 27 NA NA NOT_NAMED 1881-08-19 00:00:00 TS 36.0000 -48.5000 main 1241 1225 _____________O 36.0000 -48.5000 TS 40 8 32
1881223N16329 1881 27 NA NA NOT_NAMED 1881-08-19 03:00:00 TS 36.2099 -48.2495 main 1228 1218 _____________P 36.2099 -48.2495 TS 37 5 53
1881223N16329 1881 27 NA NA NOT_NAMED 1881-08-19 06:00:00 TS 36.3000 -48.0000 main 1223 1223 _____________O 36.3000 -48.0000 TS 35 4 69
1881223N16329 1881 27 NA NA NOT_NAMED 1881-08-19 09:00:00 TS 36.3546 -47.7863 main 1219 1214 _____________P 36.3546 -47.7863 TS 32 4 64
1881223N16329 1881 27 NA NA NOT_NAMED 1881-08-19 12:00:00 TS 36.5000 -47.5000 main 1218 1190 _____________O 36.5000 -47.5000 TD 30 8 48
1881223N16329 1881 27 NA NA NOT_NAMED 1881-08-19 15:00:00 TS 36.8977 -47.0382 main 1193 1161 _____________P 36.8977 -47.0382 TD 30 12 42
1881223N16329 1881 27 NA NA NOT_NAMED 1881-08-19 18:00:00 TS 37.4000 -46.5000 main 1161 1138 _____________O 37.4000 -46.5000 TD 30 13 41
1881223N16329 1881 27 NA NA NOT_NAMED 1881-08-19 21:00:00 TS 37.8498 -45.9994 main 1142 1116 _____________P 37.8498 -45.9994 TD 30 12 41
1881223N16329 1881 27 NA NA NOT_NAMED 1881-08-20 00:00:00 TS 38.3000 -45.5000 main 1116 1097 _____________O 38.3000 -45.5000 TD 30 12 41
1881223N16329 1881 27 NA NA NOT_NAMED 1881-08-20 03:00:00 TS 38.7573 -44.9995 main 1093 1077 _____________P 38.7573 -44.9995 TD 30 12 41
1881223N16329 1881 27 NA NA NOT_NAMED 1881-08-20 06:00:00 TS 39.2000 -44.5000 main 1082 1064 _____________O 39.2000 -44.5000 TD 30 11 38
1881223N16329 1881 27 NA NA NOT_NAMED 1881-08-20 09:00:00 TS 39.6347 -44.1259 main 1069 1058 _____________P 39.6347 -44.1259 TD 27 11 44
1881223N16329 1881 27 NA NA NOT_NAMED 1881-08-20 12:00:00 TS 40.0000 -43.5000 main 1070 1070 _____________O 40.0000 -43.5000 TD 25 15 67
1881223N16329 1881 27 NA NA NOT_NAMED 1881-08-20 15:00:00 TS 40.2322 -42.2692 main 1127 1127 _____________P 40.2322 -42.2692 TD 25 21 79
1881223N16329 1881 27 NA NA NOT_NAMED 1881-08-20 18:00:00 TS 40.4000 -40.8000 main 1207 1207 _____________O 40.4000 -40.8000 TD 25 21 80
1881223N16329 1881 27 NA NA NOT_NAMED 1881-08-20 21:00:00 TS 40.5985 -39.4843 main 1279 1279 _____________P 40.5985 -39.4843 TD 25 20 79
1881223N16329 1881 27 NA NA NOT_NAMED 1881-08-21 00:00:00 ET 40.8000 -38.2000 main 1355 1355 _____________O 40.8000 -38.2000 EX 25 20 78
1881223N16329 1881 27 NA NA NOT_NAMED 1881-08-21 03:00:00 ET 41.0054 -36.9570 main 1427 1427 _____________P 41.0054 -36.9570 EX 25 19 78
1881223N16329 1881 27 NA NA NOT_NAMED 1881-08-21 06:00:00 ET 41.2000 -35.7000 main 1506 1506 _____________O 41.2000 -35.7000 EX 25 20 80
1881223N16329 1881 27 NA NA NOT_NAMED 1881-08-21 09:00:00 ET 41.3420 -34.3483 main 1598 1598 _____________P 41.3420 -34.3483 EX 25 20 82
1881223N16329 1881 27 NA NA NOT_NAMED 1881-08-21 12:00:00 ET 41.5000 -33.0000 main 1679 1679 _____________O 41.5000 -33.0000 EX 25 20 79
1881223N16329 1881 27 NA NA NOT_NAMED 1881-08-21 15:00:00 ET 41.7295 -31.7279 main 1763 1738 _____________P 41.7295 -31.7279 EX 25 19 75
1881223N16329 1881 27 NA NA NOT_NAMED 1881-08-21 18:00:00 ET 42.0000 -30.5000 main 1730 _____________O 42.0000 -30.5000 EX 25 19 73

About IBTrACS Database

This database is a web-friendly format of International Best Track Archive for Climate Stewardship (IBTrACS), a global best track data archive curated by NOAA dating back to 1842.

Updated: 2021-10-19